Latest Observation

25 Stations

15 Minute Data | America/Los_Angeles
as of 9/1/26 9:41 PM PDT
Station Date Time Temp (°F) RH (%) Dew Pt (°F) Wind Spd (mph) Wind Dir (°) Wind Gust (mph) Latest Rain (In) Daily Rain (In) Daily Min Temp (°F) Daily Max Temp (°F)
Rockpile Upper (Cooley) 9/1/26 2130 53.6   0.6 88   3 50.0   1.5 1.4   13.7 W | 271 5.7   21.7 0.00 0.00 51.3   2.7 69.8   7.3
Rockpile Lower (Cooley) 9/1/26 2115 57.0   0.1 81   4 51.2   1.2 1.1   11.6 WNW | 298 2.8   18.6 0.00 0.00 55.0   5.9 71.9   8.2
Cloverdale-East (Ranch 83) 9/1/26 2130 61.9   0.3 - - 1.3   0.0 W | 268 2.8   3.3 0.00 0.00 54.8   6.8 74.0   7.1
Cloverdale-SE (Ranch 38) 9/1/26 2130 60.7   1.1 71   8 51.3   1.9 1.4   3.1 NNW | 332 3.2   3.3 0.00 0.00 55.6   4.6 73.9   4.3
Geyserville-North (Hoffman) 9/1/26 2130 60.7   0.1 78   0 53.8   0.1 1.5   0.8 SE | 136 3.0   1.5 0.00 0.00 52.1   2.2 77.1   1.9
Geyserville (Ranch 3) 9/1/26 2130 61.3   0.8 71   5 52.0   1.0 1.7   0.2 SE | 130 5.2   1.3 0.00 0.00 52.8   2.2 75.3   3.1
Geyserville-East (Ranch 40) 9/1/26 2130 60.2   2.3 74   11 51.8   1.7 6.7   0.2 SSE | 147 10.4   1.0 0.00 0.00 52.6   1.4 76.4   0.8
Geyserville-South (Nervo Station) 9/1/26 2130 61.2   2.0 - - 2.0   0.1 SSE | 147 4.1   0.7 0.00 0.00 54.1   2.5 73.9   3.3
Peterson (Ranch 09) 9/1/26 2130 60.2   1.2 71   6 50.8   1.2 2.8   0.3 ESE | 109 4.5   0.3 0.00 0.00 49.9   0.2 74.5   2.6
Crazy Creek Ranch 9/1/26 2130 61.2   1.4 72   7 52.3   1.2 0.8   0.4 E | 95 2.6   2.0 0.00 0.00 49.7   0.8 76.9   1.5
Whitton Ranch (201e) 9/1/26 2130 59.5   1.2 76   7 51.8   1.0 2.0   1.3 ESE | 118 4.6   2.0 0.00 0.00 46.0   0.8 78.5   0.7
Lytton East (Shop Hill Bottom) 9/1/26 2130 59.4   2.6 77   6 52.0   0.6 1.4   1.0 E | 80 3.9   1.7 0.00 0.01 47.8   0.4 74.1   3.1
Lytton East (Hill 5) 9/1/26 2130 60.8   2.1 75   5 52.8   0.5 1.3   0.9 ESE | 105 4.0   1.6 0.00 0.00 52.2   1.8 73.7   2.8
Lytton West Lower (Lew 6) 9/1/26 2115 61.1   2.2 73   4 52.4   0.6 0.4   0.5 E | 94 2.9   0.7 0.00 0.00 47.4   0.3 76.1   1.7
Lytton West Hill (23PS) 9/1/26 2130 61.7   2.0 76   3 54.2   0.8 2.9   1.6 SSE | 149 5.0   1.8 0.00 0.00 53.1   2.1 73.4   3.2
Big River 9/1/26 2130 60.4   2.0 83   2 55.1   1.4 2.3   1.9 ESE | 102 4.8   3.5 0.00 0.00 52.0   1.6 72.7   3.0
Jimtown-North (Piccolo Ranch 15) 9/1/26 2130 61.5   1.5 70   4 51.8   0.1 1.1   0.0 E | 97 4.6   0.9 0.00 0.00 48.9   0.4 75.4   3.2
HWY 128/Chalk Hill Rd (Landslide) 9/1/26 2100 62.2   1.7 75   2 54.2   0.9 0.6   0.3 SSE | 166 2.5   0.4 0.00 0.00 48.5   1.9 76.8   1.7
N Chalk Hill Rd (Ranch 63) 9/1/26 2130 60.2   1.5 79   1 53.6   1.1 1.3   1.0 ESE | 108 3.6   0.9 0.00 0.00 47.6   0.5 73.9   2.3
Newman Knights Valley 8/18/26 0015 56.2   1.8 85   4 51.7   0.4 0.8   3.5 NE | 55 2.3   5.8 0.00 0.00 55.0   1.2 88.3   0.6
Knights Valley (Bavarian Lion) 9/1/26 2130 59.4   5.3 76   9 51.8   2.0 1.0   0.5 SSE | 155 2.1   0.3 0.00 0.00 47.2   2.3 75.4   1.9
Red Tail 9/1/26 2130 59.5   1.0 81   1 53.8   0.6 2.6   0.2 E | 95 5.1   1.7 0.00 0.00 48.9   1.3 72.9   3.3
Franz Valley (Stornetta) 9/1/26 2130 59.8   1.3 77   5 52.5   0.4 0.5   1.7 SSW | 212 3.2   1.1 0.00 0.00 47.2   1.5 73.7   1.8
Upper Dry Creek Valley 9/1/26 2100 59.6   1.7 84   9 54.8   1.6 0.5   0.8 SSE | 166 1.9   2.0 0.00 0.01 50.1   1.4 76.0   3.6
Lower Dry Creek Valley 9/1/26 2130 61.0   1.8 76   3 53.3   0.6 0.1   0.1 ESE | 122 2.2   2.2 0.00 0.00 48.4   0.3 74.6   2.7
Max     62.2 88 55.1 6.7 - 10.4 0.00 0.01 55.6 78.5
Avg     60.2 76 52.6 1.6 - 3.9 0.00 - - -
Min     53.6 70 50.0 0.1 - 1.9 0.00 0.00 46.0 69.8